createdAt,value
2023-01-11T05:17:16.472Z,100568.16
2023-01-11T05:20:19.823Z,100549.03
2023-01-11T05:23:22.816Z,100544.72
2023-01-11T05:26:28.737Z,100558.66
2023-01-11T05:29:31.380Z,100550.56
2023-01-11T05:32:36.492Z,100567.72
2023-01-11T05:35:39.142Z,100570.69
2023-01-11T05:38:42.365Z,100574.28
2023-01-11T05:41:45.230Z,100561.06
2023-01-11T05:45:06.524Z,100558.97
2023-01-11T05:48:09.171Z,100553.88
2023-01-11T05:51:12.284Z,100539.56
2023-01-11T05:54:15.044Z,100539.56
2023-01-11T05:57:17.891Z,100555.53
2023-01-11T06:00:21.033Z,100555.19
2023-01-11T06:03:28.447Z,100545.78
2023-01-11T06:06:31.055Z,100550.38
2023-01-11T06:09:34.482Z,100547.56
2023-01-11T06:12:37.116Z,100534.78
2023-01-11T06:15:40.551Z,100533.13
2023-01-11T06:18:46.349Z,100540.22
2023-01-11T06:21:49.242Z,100547.22
2023-01-11T06:24:51.770Z,100554.22
2023-01-11T06:27:54.656Z,100553.28
2023-01-11T06:30:58.720Z,100546.34
2023-01-11T06:34:01.822Z,100550.72
2023-01-11T06:37:04.437Z,100545.53
2023-01-11T06:40:07.805Z,100536.84
2023-01-11T06:43:10.637Z,100548.19
2023-01-11T06:46:15.740Z,100562.94
2023-01-11T07:00:23.864Z,100588.12
2023-01-11T07:03:26.972Z,100595.19
2023-01-11T07:06:32.037Z,100589.03
2023-01-11T07:09:34.980Z,100593.44
2023-01-11T07:12:38.229Z,100598.62
2023-01-11T07:15:43.088Z,100602.06
2023-01-11T07:18:46.680Z,100601.12
2023-01-11T07:21:50.411Z,100613.34
2023-01-11T07:24:53.078Z,100614.22
2023-01-11T07:28:00.585Z,100635.19
2023-01-11T07:31:03.419Z,100643.81
2023-01-11T07:34:06.269Z,100644.66
2023-01-11T07:37:09.634Z,100647.31
2023-01-11T07:44:17.673Z,100640.22
2023-01-11T07:47:20.550Z,100641.06
2023-01-11T07:50:23.748Z,100648.88
2023-01-11T07:53:26.712Z,100643.38
2023-01-11T07:56:30.200Z,100632.03
2023-01-11T07:59:33.095Z,100621.31
2023-01-11T08:02:36.312Z,100626.56
2023-01-11T08:05:39.490Z,100628.28
2023-01-11T08:08:43.914Z,100623.06
2023-01-11T08:12:05.070Z,100630.97
2023-01-11T08:15:10.407Z,100642.22
2023-01-11T08:18:13.416Z,100643.16
2023-01-11T08:21:17.390Z,100650.16
2023-01-11T08:24:21.307Z,100651.88
2023-01-11T08:27:23.937Z,100636.97
2023-01-11T08:30:27.301Z,100636.97
2023-01-11T09:00:21.752Z,100650.00
2023-01-11T09:03:24.828Z,100663.13
2023-01-11T09:10:12.895Z,100661.88
2023-01-11T09:13:15.897Z,100675.59
2023-01-11T09:16:18.824Z,100666.34
2023-01-11T09:19:25.159Z,100663.19
2023-01-11T09:22:27.875Z,100659.88
2023-01-11T09:25:30.822Z,100663.16
2023-01-11T09:28:33.456Z,100662.31
2023-01-11T09:31:36.829Z,100661.88
2023-01-11T09:34:41.775Z,100644.66
2023-01-11T09:37:56.135Z,100636.53
2023-01-11T09:41:09.243Z,100636.50
2023-01-11T09:44:23.280Z,100627.31
2023-01-11T09:47:36.822Z,100628.34
2023-01-11T09:50:43.459Z,100630.66
2023-01-11T09:53:52.186Z,100628.22
2023-01-11T09:57:30.938Z,100634.59
2023-01-11T10:00:44.476Z,100635.81
2023-01-11T10:04:01.758Z,100629.09
2023-01-11T10:07:26.446Z,100615.91
2023-01-11T10:18:34.253Z,100612.28
2023-01-11T10:18:46.498Z,100603.03
2023-01-11T10:21:55.309Z,100601.16
2023-01-11T10:25:11.576Z,100595.34
2023-01-11T10:28:24.060Z,100592.19
2023-01-11T10:31:37.580Z,100604.75
2023-01-11T10:35:00.712Z,100608.66
2023-01-11T10:38:30.939Z,100607.31
2023-01-11T10:41:54.969Z,100615.81
2023-01-11T10:45:08.132Z,100600.72
2023-01-11T10:48:29.203Z,100592.13
2023-01-11T10:51:40.850Z,100594.50
2023-01-11T10:54:47.434Z,100599.41
2023-01-11T10:58:12.027Z,100603.78
2023-01-11T11:01:36.667Z,100608.38
2023-01-11T11:04:58.885Z,100608.19
2023-01-11T11:08:32.461Z,100591.28
2023-01-11T11:11:55.426Z,100600.97
2023-01-11T11:15:10.485Z,100598.69
2023-01-11T11:18:14.770Z,100585.75
2023-01-11T11:21:52.564Z,100574.03
2023-01-11T11:25:00.852Z,100569.13
2023-01-11T11:28:12.787Z,100571.38
2023-01-11T11:31:47.132Z,100557.19
2023-01-11T11:34:52.396Z,100558.19
2023-01-11T11:37:56.791Z,100559.19
2023-01-11T11:44:33.247Z,100548.56
2023-01-11T11:48:09.956Z,100548.28
2023-01-11T11:52:17.422Z,100546.81
2023-01-11T11:55:28.667Z,100555.28
2023-01-11T11:58:31.482Z,100564.53
2023-01-11T12:01:39.954Z,100560.38
2023-01-11T12:04:49.625Z,100557.16
2023-01-11T12:07:55.600Z,100563.13
2023-01-11T12:11:01.763Z,100556.75
2023-01-11T12:14:17.544Z,100555.09
2023-01-11T12:17:24.458Z,100564.78
2023-01-11T12:20:29.861Z,100551.78
2023-01-11T12:23:33.357Z,100566.41
2023-01-11T12:26:47.140Z,100567.34
2023-01-11T12:29:57.453Z,100557.53
2023-01-11T12:33:11.308Z,100560.09
2023-01-11T12:36:14.478Z,100571.66
2023-01-11T12:39:36.137Z,100570.31
2023-01-11T12:43:00.965Z,100569.47
2023-01-11T12:46:30.997Z,100568.53
2023-01-11T12:49:55.881Z,100570.81
2023-01-11T12:53:40.188Z,100570.31
2023-01-11T12:56:58.079Z,100570.19
2023-01-11T13:00:15.985Z,100564.47
2023-01-11T13:03:36.166Z,100570.88
2023-01-11T13:06:41.896Z,100563.88
2023-01-11T13:09:50.877Z,100555.50
2023-01-11T13:13:05.935Z,100553.31
2023-01-11T13:16:24.877Z,100555.47
2023-01-11T13:19:38.228Z,100557.59
2023-01-11T13:22:49.315Z,100556.72
2023-01-11T13:25:54.148Z,100562.53
2023-01-11T13:29:01.953Z,100558.72
2023-01-11T13:32:08.715Z,100560.94
2023-01-11T13:35:17.566Z,100565.91
2023-01-11T13:38:41.685Z,100573.53
2023-01-11T13:41:52.412Z,100584.88
2023-01-11T13:45:13.528Z,100579.72
2023-01-11T13:48:19.462Z,100581.62
2023-01-11T13:51:39.108Z,100584.78
2023-01-11T13:54:48.799Z,100583.09
2023-01-11T13:58:03.692Z,100580.91
2023-01-11T14:01:15.109Z,100581.31
2023-01-11T14:04:23.745Z,100579.56
2023-01-11T14:07:41.316Z,100587.72
2023-01-11T14:10:55.180Z,100584.34
2023-01-11T14:14:18.195Z,100588.09
2023-01-11T14:17:43.795Z,100581.34
2023-01-11T14:21:01.751Z,100583.34
2023-01-11T14:24:06.774Z,100582.59
2023-01-11T14:27:46.867Z,100575.03
2023-01-11T14:31:28.320Z,100570.97
2023-01-11T14:34:36.696Z,100567.62
2023-01-11T14:37:58.711Z,100565.03
2023-01-11T14:41:30.931Z,100561.94
2023-01-11T14:45:00.899Z,100575.06
2023-01-11T14:48:23.606Z,100573.94
2023-01-11T14:51:52.235Z,100578.72
2023-01-11T14:54:58.046Z,100571.84
2023-01-11T14:58:18.337Z,100573.78
2023-01-11T15:01:21.158Z,100571.31
2023-01-11T15:04:24.096Z,100565.59
2023-01-11T15:07:38.157Z,100569.16
2023-01-11T15:11:05.703Z,100564.59
2023-01-11T15:14:28.718Z,100566.00
2023-01-11T15:17:50.544Z,100562.56
2023-01-11T15:21:05.376Z,100563.81
2023-01-11T15:24:23.573Z,100559.53
2023-01-11T15:27:38.701Z,100568.44
2023-01-11T15:30:52.104Z,100574.78
2023-01-11T15:33:55.068Z,100578.47
2023-01-11T15:37:33.047Z,100583.13
2023-01-11T15:40:40.704Z,100575.38
2023-01-11T15:44:05.280Z,100576.34
2023-01-11T15:47:32.315Z,100567.66
2023-01-11T15:51:10.532Z,100569.63
2023-01-11T15:54:21.939Z,100569.81
2023-01-11T15:57:39.863Z,100561.97
2023-01-11T16:01:02.745Z,100574.28
2023-01-11T16:04:29.171Z,100579.63
2023-01-11T16:08:03.652Z,100576.19
2023-01-11T16:11:06.507Z,100579.81
2023-01-11T16:14:46.373Z,100580.94
2023-01-11T16:17:50.704Z,100574.06
2023-01-11T16:21:01.329Z,100565.44
2023-01-11T16:24:09.667Z,100568.34
2023-01-11T16:27:30.987Z,100569.28
2023-01-11T16:30:34.525Z,100558.87
2023-01-11T16:33:37.372Z,100572.19
